createdAt,value
2023-08-11T00:01:46.842Z,92.7
2023-08-11T00:04:13.531Z,92.6
2023-08-11T00:06:40.203Z,92.4
2023-08-11T00:09:06.892Z,92.4
2023-08-11T00:11:32.188Z,93.4
2023-08-11T00:13:58.800Z,93.1
2023-08-11T00:16:25.483Z,92.6
2023-08-11T00:18:52.173Z,93
2023-08-11T00:21:18.860Z,93.2
2023-08-11T00:23:45.537Z,93.3
2023-08-11T00:26:12.213Z,93.4
2023-08-11T00:28:38.902Z,93.5
2023-08-11T00:31:05.585Z,94
2023-08-11T00:33:32.264Z,93.7
2023-08-11T00:35:58.959Z,94.7
2023-08-11T00:38:25.629Z,94.3
2023-08-11T00:40:52.310Z,93.8
2023-08-11T00:43:17.535Z,94.2
2023-08-11T00:45:44.223Z,94.2
2023-08-11T00:48:10.898Z,94
2023-08-11T00:50:37.589Z,94
2023-08-11T00:53:04.278Z,94
2023-08-11T00:55:29.520Z,94.2
2023-08-11T00:57:56.190Z,94
2023-08-11T01:00:22.906Z,93.5
2023-08-11T01:02:49.552Z,94.2
2023-08-11T01:05:16.245Z,94.3
2023-08-11T01:07:42.930Z,94
2023-08-11T01:10:09.625Z,94.5
2023-08-11T01:12:36.308Z,94.2
2023-08-11T01:15:03.010Z,94.1
2023-08-11T01:17:29.690Z,93.7
2023-08-11T01:19:56.351Z,94.5
2023-08-11T01:22:23.047Z,94.5
2023-08-11T01:24:49.731Z,94.5
2023-08-11T01:27:14.957Z,94.6
2023-08-11T01:29:41.639Z,95
2023-08-11T01:32:08.330Z,94.8
2023-08-11T01:34:35.011Z,94.8
2023-08-11T01:37:01.689Z,94.4
2023-08-11T01:39:28.381Z,94.8
2023-08-11T01:41:55.056Z,94.9
2023-08-11T01:44:21.730Z,95.3
2023-08-11T01:46:48.424Z,95.5
2023-08-11T01:49:15.149Z,95.8
2023-08-11T01:51:41.799Z,95.9
2023-08-11T01:54:08.511Z,95.8
2023-08-11T01:56:35.169Z,95.6
2023-08-11T01:59:00.388Z,95.7
2023-08-11T02:01:27.071Z,95.7
2023-08-11T02:03:53.774Z,95.6
2023-08-11T02:06:20.449Z,95.8
2023-08-11T02:08:47.145Z,95.7
2023-08-11T02:11:13.819Z,95.6
2023-08-11T02:13:40.505Z,95.5
2023-08-11T02:16:07.164Z,95.6
2023-08-11T02:18:33.868Z,95.5
2023-08-11T02:21:00.543Z,95.7
2023-08-11T02:23:27.235Z,96.3
2023-08-11T02:25:53.906Z,96.7
2023-08-11T02:28:20.594Z,96
2023-08-11T02:30:45.822Z,95.9
2023-08-11T02:33:12.499Z,95.8
2023-08-11T02:35:39.170Z,95.7
2023-08-11T02:38:05.864Z,95.9
2023-08-11T02:40:32.539Z,95.8
2023-08-11T02:42:59.229Z,96.1
2023-08-11T02:45:26.094Z,96.2
2023-08-11T02:47:52.582Z,96.4
2023-08-11T02:50:19.284Z,96.7
2023-08-11T02:52:45.966Z,96.4
2023-08-11T02:55:12.648Z,96.2
2023-08-11T02:57:39.327Z,95.8
2023-08-11T03:00:06.017Z,95.5
2023-08-11T03:02:31.245Z,95.9
2023-08-11T03:04:57.916Z,96
2023-08-11T03:07:24.612Z,96.3
2023-08-11T03:09:51.280Z,96.5
2023-08-11T03:12:17.978Z,96.3
2023-08-11T03:14:44.660Z,96.2
2023-08-11T03:17:11.335Z,96.2
2023-08-11T03:19:38.022Z,96.3
2023-08-11T03:22:04.695Z,96.3
2023-08-11T03:24:31.404Z,96.6
2023-08-11T03:26:58.085Z,96.6
2023-08-11T03:29:24.755Z,96.3
2023-08-11T03:31:51.452Z,96.6
2023-08-11T03:34:16.668Z,96.7
2023-08-11T03:36:43.356Z,97.1
2023-08-11T03:39:10.049Z,97.4
2023-08-11T03:41:36.724Z,97.1
2023-08-11T03:44:03.400Z,96.8
2023-08-11T03:46:30.096Z,96.5
2023-08-11T03:48:56.764Z,96.5
2023-08-11T03:51:23.538Z,96.6
2023-08-11T03:53:50.136Z,96.7
2023-08-11T03:56:16.826Z,96.5
2023-08-11T03:58:43.508Z,96.5
2023-08-11T04:01:10.218Z,96.9
2023-08-11T04:03:36.880Z,97.3
2023-08-11T04:06:02.114Z,97.5
2023-08-11T04:08:28.778Z,97
2023-08-11T04:10:55.477Z,96.8
2023-08-11T04:13:22.166Z,96.7
2023-08-11T04:15:48.848Z,96.8
2023-08-11T04:18:15.525Z,96.5
2023-08-11T04:20:42.228Z,96.6
2023-08-11T04:23:08.890Z,96.5
2023-08-11T04:25:35.583Z,96.4
2023-08-11T04:28:02.266Z,96.3
2023-08-11T04:30:28.941Z,96.6
2023-08-11T04:32:55.681Z,96.8
2023-08-11T04:35:22.303Z,96.7
2023-08-11T04:37:47.535Z,96.3
2023-08-11T04:40:14.219Z,96.5
2023-08-11T04:42:40.894Z,96
2023-08-11T04:45:07.600Z,96.3
2023-08-11T04:47:34.265Z,96.5
2023-08-11T04:50:00.958Z,96.3
2023-08-11T04:52:27.636Z,96.7
2023-08-11T04:54:54.331Z,96.7
2023-08-11T04:57:21.015Z,97.2
2023-08-11T04:59:47.693Z,97.2
2023-08-11T05:02:14.367Z,97.4
2023-08-11T05:04:41.060Z,97.3
2023-08-11T05:07:07.745Z,97.2
2023-08-11T05:09:32.968Z,97.4
2023-08-11T05:11:59.639Z,97.1
2023-08-11T05:14:26.334Z,96.6
2023-08-11T05:16:53.017Z,96.2
2023-08-11T05:19:19.703Z,95.5
2023-08-11T05:21:46.395Z,94.9
2023-08-11T05:24:13.068Z,94
2023-08-11T05:26:39.756Z,93.4
2023-08-11T05:29:06.452Z,93.2
2023-08-11T05:31:33.123Z,92.9
2023-08-11T05:33:59.814Z,92.9
2023-08-11T05:36:26.496Z,93
2023-08-11T05:38:53.190Z,92.9
2023-08-11T05:41:18.406Z,92.5
2023-08-11T05:43:45.072Z,92.3
2023-08-11T05:46:11.766Z,92.7
2023-08-11T05:48:38.443Z,91.8
2023-08-11T05:51:05.146Z,91.1
2023-08-11T05:53:31.897Z,90.1
2023-08-11T05:55:58.518Z,90
2023-08-11T05:58:25.194Z,89.7
2023-08-11T06:00:51.875Z,88.9
2023-08-11T06:03:18.572Z,89.8
2023-08-11T06:05:45.241Z,89.3
2023-08-11T06:08:11.944Z,89.3
2023-08-11T06:10:38.627Z,89.4
2023-08-11T06:13:03.862Z,87.2
2023-08-11T06:15:30.527Z,87.3
2023-08-11T06:17:57.202Z,87.5
2023-08-11T06:20:23.892Z,87.7
2023-08-11T06:22:50.586Z,85.7
2023-08-11T06:25:17.270Z,85.5
2023-08-11T06:27:43.950Z,84.6
2023-08-11T06:30:10.628Z,84.2
2023-08-11T06:32:37.312Z,82.7
2023-08-11T06:35:04.022Z,83.4
2023-08-11T06:37:30.689Z,83.5
2023-08-11T06:39:57.379Z,82.2
2023-08-11T06:42:24.066Z,81.4
2023-08-11T06:44:49.273Z,80.7
2023-08-11T06:47:16.010Z,81
2023-08-11T06:49:42.678Z,79.2
2023-08-11T06:52:09.317Z,78.6
2023-08-11T06:54:36.012Z,78.1
2023-08-11T06:57:02.700Z,78.3
2023-08-11T06:59:29.372Z,77.3
2023-08-11T07:01:56.082Z,76.6
2023-08-11T07:04:22.753Z,75.3
2023-08-11T07:06:49.429Z,75.8
2023-08-11T07:09:16.180Z,71.1
2023-08-11T07:11:42.805Z,67.2
2023-08-11T07:14:09.487Z,62.2
2023-08-11T07:16:34.695Z,58
2023-08-11T07:19:01.395Z,54.5
2023-08-11T07:21:28.068Z,51.3
2023-08-11T07:23:54.757Z,48.2
2023-08-11T07:26:21.447Z,47.6
2023-08-11T07:28:48.137Z,48.5
2023-08-11T07:31:14.829Z,47.6
2023-08-11T07:33:41.503Z,47.9
2023-08-11T07:36:08.187Z,42.6
2023-08-11T07:38:34.858Z,40
2023-08-11T07:41:01.553Z,41
2023-08-11T07:43:28.223Z,38.8
2023-08-11T07:45:54.904Z,39
2023-08-11T07:48:21.614Z,41.3
2023-08-11T07:50:46.821Z,39.9
2023-08-11T07:53:13.505Z,39
2023-08-11T07:55:40.193Z,39.2
2023-08-11T07:58:06.865Z,37.9
2023-08-11T08:00:33.544Z,38.7
2023-08-11T08:03:00.257Z,35.3
2023-08-11T08:05:26.918Z,36.7
2023-08-11T08:07:53.677Z,35
2023-08-11T08:10:20.293Z,34.6
2023-08-11T08:12:46.976Z,35.2
2023-08-11T08:15:13.664Z,34
2023-08-11T08:17:40.353Z,32.6
2023-08-11T08:20:07.038Z,35
2023-08-11T08:22:32.248Z,34.1
2023-08-11T08:24:58.940Z,33.8
2023-08-11T08:27:25.619Z,32.5
2023-08-11T08:29:52.305Z,34.1
2023-08-11T08:32:18.976Z,32.3
2023-08-11T08:34:45.669Z,32.2
2023-08-11T08:37:12.367Z,34.8
2023-08-11T08:39:39.034Z,34.9
2023-08-11T08:42:05.714Z,33.4
2023-08-11T08:44:32.442Z,33.5
2023-08-11T08:46:59.088Z,33
2023-08-11T08:49:25.777Z,31.8
2023-08-11T08:51:52.464Z,32.6
2023-08-11T08:54:17.692Z,32
2023-08-11T08:56:44.368Z,32.2
2023-08-11T08:59:11.055Z,33.9
2023-08-11T09:01:37.739Z,32.3
2023-08-11T09:04:04.426Z,32.6
2023-08-11T09:06:29.671Z,33.6
2023-08-11T09:08:56.344Z,33.6
2023-08-11T09:11:23.046Z,31.8
2023-08-11T09:13:49.718Z,31.7
2023-08-11T09:16:16.420Z,32.4
2023-08-11T09:18:43.133Z,32.4
2023-08-11T09:21:09.821Z,30.9
2023-08-11T09:23:36.493Z,29.5
2023-08-11T09:26:03.198Z,32.1
2023-08-11T09:28:29.876Z,30.1
2023-08-11T09:30:56.513Z,28.5
2023-08-11T09:33:23.252Z,33.1
2023-08-11T09:35:49.895Z,32.1
2023-08-11T09:38:16.560Z,31.4
2023-08-11T09:40:41.764Z,31.5
2023-08-11T09:43:08.478Z,30.1
2023-08-11T09:45:35.150Z,29.1
2023-08-11T09:48:01.834Z,31.6
2023-08-11T09:50:28.522Z,31.4
2023-08-11T09:52:55.200Z,31.5
2023-08-11T09:55:21.977Z,31.1
2023-08-11T09:57:48.572Z,30.6
2023-08-11T10:00:15.342Z,31.6
2023-08-11T10:02:42.180Z,31
2023-08-11T10:05:08.775Z,31.4
2023-08-11T10:07:35.363Z,31.6
2023-08-11T10:10:02.007Z,32.3
2023-08-11T10:12:27.232Z,29.9
2023-08-11T10:14:53.904Z,31.3
2023-08-11T10:17:20.578Z,32.6
2023-08-11T10:19:47.281Z,33.2
2023-08-11T10:22:13.957Z,32.7
2023-08-11T10:24:40.646Z,33.4
2023-08-11T10:27:07.345Z,32.1
2023-08-11T10:29:34.014Z,32.6
2023-08-11T10:32:00.701Z,34.1
2023-08-11T10:34:27.396Z,33.6
2023-08-11T10:36:54.059Z,32.3
2023-08-11T10:39:20.746Z,34.4
2023-08-11T10:41:47.454Z,36.4
2023-08-11T10:44:12.747Z,37.3
2023-08-11T10:46:39.339Z,38.2
2023-08-11T10:49:06.048Z,38.1
2023-08-11T10:51:32.706Z,38.1
2023-08-11T10:53:59.395Z,38.7
2023-08-11T10:56:26.084Z,39.5
2023-08-11T10:58:52.766Z,40
2023-08-11T11:01:19.459Z,39
2023-08-11T11:03:46.172Z,40.1
2023-08-11T11:06:12.871Z,40.3
2023-08-11T11:08:39.516Z,40.6
2023-08-11T11:11:06.266Z,40.8
2023-08-11T11:13:32.870Z,41.9
2023-08-11T11:15:58.097Z,40.6
2023-08-11T11:18:24.771Z,41
2023-08-11T11:20:51.472Z,41.1
2023-08-11T11:23:18.161Z,41.3
2023-08-11T11:25:44.835Z,41.9
2023-08-11T11:28:11.515Z,40.4
2023-08-11T11:30:38.202Z,39.9
2023-08-11T11:33:04.880Z,40.9
2023-08-11T11:35:31.565Z,40.1
2023-08-11T11:37:58.269Z,40.6
2023-08-11T11:42:51.630Z,40.5
2023-08-11T11:45:18.314Z,39.9
2023-08-11T11:47:45.000Z,42.4
2023-08-11T11:50:10.234Z,40.9
2023-08-11T11:52:36.906Z,40.5
2023-08-11T11:55:03.598Z,41.5
2023-08-11T11:57:30.279Z,40.7
2023-08-11T11:59:56.966Z,40.6
2023-08-11T12:02:23.653Z,41.4
2023-08-11T12:04:50.330Z,40.8
2023-08-11T12:07:17.022Z,40
2023-08-11T12:09:43.701Z,42.2
2023-08-11T12:12:10.393Z,39
2023-08-11T12:14:37.081Z,39.6
2023-08-11T12:17:03.864Z,40.8
2023-08-11T12:19:30.624Z,40.4
2023-08-11T12:21:55.668Z,42.5
2023-08-11T12:24:22.379Z,40.5
2023-08-11T12:26:49.034Z,41.9
2023-08-11T12:29:15.869Z,40.9
2023-08-11T12:31:42.446Z,41.4
2023-08-11T12:34:09.120Z,41.9
2023-08-11T12:36:35.786Z,41.6
2023-08-11T12:39:02.459Z,41.3
2023-08-11T12:41:29.159Z,41.9
2023-08-11T12:43:55.843Z,41.1
2023-08-11T12:46:22.531Z,41.8
2023-08-11T12:48:49.207Z,42
2023-08-11T12:51:15.899Z,41.5
2023-08-11T12:53:41.123Z,42
2023-08-11T12:56:07.804Z,41.3
2023-08-11T12:58:34.520Z,41.5
2023-08-11T13:01:01.168Z,39.7
2023-08-11T13:03:27.876Z,40.2
2023-08-11T13:05:54.555Z,40.3
2023-08-11T13:08:21.237Z,39.9
2023-08-11T13:10:47.928Z,39.3
2023-08-11T13:13:14.613Z,39.9
2023-08-11T13:15:41.310Z,40.6
2023-08-11T13:18:07.975Z,41.1
2023-08-11T13:20:34.670Z,38.8
2023-08-11T13:23:01.345Z,41.3
2023-08-11T13:25:28.030Z,40.9
2023-08-11T13:27:53.269Z,40.1
2023-08-11T13:30:19.962Z,40.6
2023-08-11T13:32:46.628Z,40.8
2023-08-11T13:35:13.323Z,40.7
2023-08-11T13:37:40.013Z,40.5
2023-08-11T13:40:06.704Z,41.5
2023-08-11T13:42:33.376Z,41
2023-08-11T13:45:00.064Z,41.7
2023-08-11T13:47:26.744Z,41.3
2023-08-11T13:49:53.416Z,40.2
2023-08-11T13:52:20.114Z,40.7
2023-08-11T13:54:46.792Z,41.7
2023-08-11T13:57:13.488Z,40.8
2023-08-11T13:59:38.701Z,41.4
2023-08-11T14:02:05.403Z,41.7
2023-08-11T14:04:32.075Z,42
2023-08-11T14:06:58.755Z,41.8
2023-08-11T14:09:25.444Z,42
2023-08-11T14:11:52.133Z,41.8
2023-08-11T14:14:18.847Z,41.8
2023-08-11T14:16:45.515Z,42.4
2023-08-11T14:19:12.253Z,40.9
2023-08-11T14:21:38.874Z,41.2
2023-08-11T14:24:05.602Z,42.4
2023-08-11T14:26:32.256Z,42.1
2023-08-11T14:28:58.933Z,41.4
2023-08-11T14:31:24.150Z,43.1
2023-08-11T14:33:50.822Z,42.5
2023-08-11T14:36:17.521Z,42
2023-08-11T14:38:44.206Z,42.3
2023-08-11T14:41:10.955Z,41.7
2023-08-11T14:43:37.685Z,42.9
2023-08-11T14:46:04.278Z,40.1
2023-08-11T14:48:30.966Z,41.1
2023-08-11T14:50:57.642Z,41
2023-08-11T14:53:24.333Z,39.3
2023-08-11T14:55:51.007Z,40.3
2023-08-11T14:58:17.758Z,42.2
2023-08-11T15:00:44.383Z,42.9
2023-08-11T15:03:09.592Z,45.2
2023-08-11T15:05:36.296Z,45.7
2023-08-11T15:08:03.016Z,44.4
2023-08-11T15:10:29.665Z,42.5
2023-08-11T15:12:56.346Z,43
2023-08-11T15:15:23.038Z,43.8
2023-08-11T15:17:49.723Z,44.6
2023-08-11T15:20:16.422Z,43.3
2023-08-11T15:22:43.118Z,44.9
2023-08-11T15:25:09.796Z,43.2
2023-08-11T15:27:36.456Z,43.5
2023-08-11T15:30:03.157Z,42.7
2023-08-11T15:32:29.845Z,45
2023-08-11T15:34:55.067Z,43.8
2023-08-11T15:37:21.816Z,45.5
2023-08-11T15:39:48.429Z,44.6
2023-08-11T15:42:15.114Z,44.7
2023-08-11T15:44:41.816Z,45.6
2023-08-11T15:47:08.495Z,44.2
2023-08-11T15:49:35.189Z,44.1
2023-08-11T15:52:01.853Z,46
2023-08-11T15:54:28.553Z,45.1
2023-08-11T15:56:55.230Z,45.8
2023-08-11T15:59:21.915Z,45.5
2023-08-11T16:01:48.592Z,45.9
2023-08-11T16:04:15.286Z,45.6
2023-08-11T16:06:40.504Z,45
2023-08-11T16:09:07.203Z,46.5
2023-08-11T16:11:33.882Z,44.4
2023-08-11T16:16:27.258Z,43.6
2023-08-11T16:18:53.952Z,44.2
2023-08-11T16:21:20.625Z,43.3
2023-08-11T16:23:47.301Z,43.6
2023-08-11T16:26:13.995Z,43.4
2023-08-11T16:28:40.685Z,44
2023-08-11T16:31:07.359Z,43.3
2023-08-11T16:33:34.057Z,43
2023-08-11T16:36:00.740Z,44.5
2023-08-11T16:40:54.222Z,44.2
2023-08-11T16:43:20.797Z,44.1
2023-08-11T16:45:47.475Z,44
2023-08-11T16:48:12.704Z,44.1
2023-08-11T16:50:39.395Z,43.9
2023-08-11T16:53:06.082Z,44.8
2023-08-11T16:55:32.761Z,44.7
2023-08-11T16:57:59.437Z,45.2
2023-08-11T17:00:26.118Z,46
2023-08-11T17:02:52.803Z,47.4
2023-08-11T17:05:19.477Z,45.5
2023-08-11T17:07:46.175Z,44.9
2023-08-11T17:10:12.854Z,46.9
2023-08-11T17:12:39.534Z,45.3
2023-08-11T17:15:06.217Z,48.3
2023-08-11T17:17:32.901Z,49.8
2023-08-11T17:19:58.149Z,52.1
2023-08-11T17:22:24.824Z,54.7
2023-08-11T17:24:51.512Z,52.5
2023-08-11T17:27:18.204Z,50.6
2023-08-11T17:29:44.878Z,51.9
2023-08-11T17:32:11.565Z,52.1
2023-08-11T17:34:38.249Z,52.9
2023-08-11T17:37:04.932Z,53.9
2023-08-11T17:39:31.622Z,54.7
2023-08-11T17:41:58.309Z,54.7
2023-08-11T17:44:25.016Z,54.4
2023-08-11T17:46:51.661Z,55
2023-08-11T17:49:18.361Z,55.4
2023-08-11T17:51:45.050Z,56.5
2023-08-11T17:54:10.372Z,57.2
2023-08-11T17:56:36.951Z,57.6
2023-08-11T17:59:03.630Z,58.3
2023-08-11T18:03:56.995Z,60.1
2023-08-11T18:06:23.691Z,60.1
2023-08-11T18:08:50.374Z,60.4
2023-08-11T18:11:17.059Z,60.9
2023-08-11T18:13:43.736Z,61.9
2023-08-11T18:16:10.429Z,62.2
2023-08-11T18:18:37.117Z,61.9
2023-08-11T18:21:03.816Z,62.4
2023-08-11T18:23:30.480Z,62.4
2023-08-11T18:25:55.710Z,63.1
2023-08-11T18:28:22.380Z,64.3
2023-08-11T18:30:49.086Z,65.3
2023-08-11T18:33:15.782Z,66.3
2023-08-11T18:35:42.453Z,66.9
2023-08-11T18:38:09.126Z,66.8
2023-08-11T18:40:35.889Z,66.6
2023-08-11T18:43:02.505Z,67
2023-08-11T18:45:29.222Z,67.6
2023-08-11T18:47:55.925Z,68.4
2023-08-11T18:50:22.563Z,68.5
2023-08-11T18:52:49.256Z,68.4
2023-08-11T18:55:15.953Z,71
2023-08-11T18:57:41.142Z,71.2
2023-08-11T19:00:07.833Z,71.8
2023-08-11T19:02:34.524Z,72
2023-08-11T19:05:01.222Z,71
2023-08-11T19:07:27.886Z,71.5
2023-08-11T19:09:54.572Z,72.3
2023-08-11T19:12:21.265Z,72.3
2023-08-11T19:14:47.929Z,72.2
2023-08-11T19:17:14.641Z,73.6
2023-08-11T19:19:41.313Z,73.5
2023-08-11T19:22:07.995Z,74.7
2023-08-11T19:24:34.686Z,75.6
2023-08-11T19:27:01.358Z,75.8
2023-08-11T19:29:26.576Z,76.1
2023-08-11T19:31:53.291Z,76.4
2023-08-11T19:34:19.959Z,77
2023-08-11T19:36:46.749Z,77.7
2023-08-11T19:39:13.332Z,78
2023-08-11T19:41:40.015Z,78.1
2023-08-11T19:44:06.694Z,78.6
2023-08-11T19:46:33.375Z,79.1
2023-08-11T19:49:00.067Z,79.3
2023-08-11T19:51:26.749Z,79.8
2023-08-11T19:53:53.535Z,80.4
2023-08-11T19:56:20.108Z,80.1
2023-08-11T19:58:46.786Z,80.8
2023-08-11T20:01:12.034Z,80.3
2023-08-11T20:03:38.709Z,80.4
2023-08-11T20:06:05.380Z,80.4
2023-08-11T20:08:32.077Z,80.1
2023-08-11T20:10:58.755Z,80
2023-08-11T20:13:25.436Z,81.1
2023-08-11T20:15:52.118Z,81.4
2023-08-11T20:18:18.794Z,81.3
2023-08-11T20:20:45.546Z,82.1
2023-08-11T20:23:12.251Z,82.6
2023-08-11T20:25:38.885Z,83
2023-08-11T20:28:05.647Z,83.1
2023-08-11T20:30:32.218Z,83.1
2023-08-11T20:32:57.582Z,82.5
2023-08-11T20:35:24.137Z,82.8
2023-08-11T20:37:50.933Z,83.4
2023-08-11T20:40:17.528Z,83.8
2023-08-11T20:42:44.190Z,84.2
2023-08-11T20:45:10.862Z,83.7
2023-08-11T20:47:37.567Z,84.2
2023-08-11T20:50:04.232Z,84.3
2023-08-11T20:52:30.921Z,84.5
2023-08-11T20:54:57.603Z,84.7
2023-08-11T20:57:24.295Z,85.1
2023-08-11T20:59:50.981Z,85.2
2023-08-11T21:02:17.773Z,85.3
2023-08-11T21:04:42.890Z,85.5
2023-08-11T21:07:09.577Z,85.7
2023-08-11T21:09:36.264Z,85.5
2023-08-11T21:12:02.947Z,85.6
2023-08-11T21:14:29.620Z,85.8
2023-08-11T21:16:56.301Z,86.4
2023-08-11T21:19:22.992Z,86.6
2023-08-11T21:21:49.674Z,86.5
2023-08-11T21:24:16.383Z,86.6
2023-08-11T21:26:43.073Z,86.8
2023-08-11T21:29:09.737Z,86.7
2023-08-11T21:31:36.411Z,87
2023-08-11T21:34:03.115Z,87.1
2023-08-11T21:36:28.320Z,87.6
2023-08-11T21:38:55.011Z,88
2023-08-11T21:41:21.909Z,87.8
2023-08-11T21:43:48.371Z,87.4
2023-08-11T21:46:15.074Z,87.3
2023-08-11T21:48:41.749Z,87.8
2023-08-11T21:51:08.415Z,88
2023-08-11T21:53:35.121Z,87.8
2023-08-11T21:56:01.834Z,87.8
2023-08-11T21:58:28.494Z,88.7
2023-08-11T22:00:55.173Z,88.8
2023-08-11T22:03:21.845Z,88
2023-08-11T22:05:48.535Z,88.3
2023-08-11T22:08:13.754Z,88.1
2023-08-11T22:10:40.435Z,88.1
2023-08-11T22:13:07.116Z,88.2
2023-08-11T22:15:33.822Z,88.2
2023-08-11T22:18:00.485Z,88.2
2023-08-11T22:20:27.189Z,89.3
2023-08-11T22:22:53.865Z,89.2
2023-08-11T22:25:20.554Z,89.2
2023-08-11T22:27:47.238Z,89
2023-08-11T22:30:13.918Z,88.6
2023-08-11T22:32:40.612Z,88.7
2023-08-11T22:35:07.295Z,90.5
2023-08-11T22:37:34.001Z,90.4
2023-08-11T22:39:59.189Z,90.2
2023-08-11T22:42:25.866Z,90.1
2023-08-11T22:44:52.562Z,90.6
2023-08-11T22:47:19.240Z,90.3
2023-08-11T22:49:45.926Z,90.4
2023-08-11T22:52:12.610Z,91.2
2023-08-11T22:54:39.290Z,90.7
2023-08-11T22:57:05.982Z,90.4
2023-08-11T22:59:32.669Z,90.8
2023-08-11T23:01:59.339Z,90.8
2023-08-11T23:04:26.041Z,91
2023-08-11T23:06:52.702Z,91.1
2023-08-11T23:09:19.399Z,91.1
2023-08-11T23:11:44.623Z,91.3
2023-08-11T23:14:11.302Z,91.1
2023-08-11T23:16:37.982Z,91.1
2023-08-11T23:19:04.694Z,91.4
2023-08-11T23:21:31.350Z,91.1
2023-08-11T23:23:58.036Z,91.2
2023-08-11T23:26:24.721Z,91.1
2023-08-11T23:28:51.414Z,91.4
2023-08-11T23:31:18.091Z,91.4
2023-08-11T23:33:45.056Z,91.4
2023-08-11T23:36:11.464Z,91.8
2023-08-11T23:38:38.143Z,92.6
2023-08-11T23:41:04.830Z,91.7
2023-08-11T23:43:30.046Z,91.7
2023-08-11T23:45:56.723Z,92.9
2023-08-11T23:48:23.420Z,93
2023-08-11T23:50:50.098Z,92.8
2023-08-11T23:53:16.776Z,92.6
2023-08-11T23:55:43.511Z,91.8
2023-08-11T23:58:10.155Z,91.7
